createdAt,value
2022-12-08T00:00:15.249Z,95025
2022-12-08T00:01:24.980Z,95021
2022-12-08T00:02:34.849Z,95019
2022-12-08T00:03:44.428Z,95018
2022-12-08T00:04:53.131Z,95016
2022-12-08T00:06:01.842Z,95014
2022-12-08T00:07:11.590Z,95010
2022-12-08T00:08:19.354Z,95015
2022-12-08T00:09:30.943Z,95013
2022-12-08T00:10:48.752Z,95008
2022-12-08T00:11:50.325Z,95014
2022-12-08T00:13:00.082Z,95015
2022-12-08T00:14:08.841Z,95016
2022-12-08T00:15:18.523Z,95020
2022-12-08T00:16:28.282Z,95021
2022-12-08T00:17:37.974Z,95014
2022-12-08T00:18:47.695Z,95016
2022-12-08T00:19:57.378Z,95019
2022-12-08T00:21:07.139Z,95010
2022-12-08T00:22:16.822Z,95009
2022-12-08T00:23:26.539Z,95009
2022-12-08T00:24:35.261Z,95010
2022-12-08T00:25:44.983Z,95014
2022-12-08T00:26:53.674Z,95012
2022-12-08T00:28:03.372Z,95011
2022-12-08T00:29:17.116Z,95012
2022-12-08T00:30:22.839Z,95011
2022-12-08T00:31:32.635Z,95008
2022-12-08T00:32:40.276Z,95006
2022-12-08T00:33:50.002Z,95007
2022-12-08T00:34:59.761Z,94999
2022-12-08T00:36:09.444Z,95001
2022-12-08T00:37:18.140Z,95003
2022-12-08T00:38:27.833Z,95001
2022-12-08T00:39:37.528Z,95001
2022-12-08T00:40:47.250Z,95001
2022-12-08T00:41:54.939Z,95004
2022-12-08T00:43:03.622Z,95003
2022-12-08T00:44:13.318Z,95003
2022-12-08T00:45:23.070Z,95004
2022-12-08T00:46:32.785Z,95001
2022-12-08T00:47:41.451Z,95001
2022-12-08T00:48:51.149Z,94999
2022-12-08T00:50:01.070Z,94999
2022-12-08T00:51:10.604Z,94998
2022-12-08T00:52:20.300Z,94995
2022-12-08T00:53:30.039Z,94999
2022-12-08T00:54:38.755Z,94998
2022-12-08T00:55:48.454Z,94998
2022-12-08T00:56:57.162Z,94995
2022-12-08T00:58:06.863Z,94995
2022-12-08T00:59:16.612Z,94991
2022-12-08T01:00:26.336Z,94992
2022-12-08T01:01:36.072Z,94992
2022-12-08T01:02:45.714Z,94993
2022-12-08T01:03:55.418Z,94992
2022-12-08T01:05:05.180Z,94994
2022-12-08T01:06:14.900Z,94994
2022-12-08T01:07:24.669Z,94994
2022-12-08T01:08:34.358Z,94995
2022-12-08T01:09:43.047Z,95000
2022-12-08T01:10:52.785Z,94996
2022-12-08T01:12:02.461Z,94996
2022-12-08T01:13:12.194Z,94993
2022-12-08T01:14:21.007Z,94992
2022-12-08T01:15:31.782Z,94989
2022-12-08T01:16:40.524Z,94994
2022-12-08T01:17:50.176Z,94995
2022-12-08T01:19:00.893Z,94988
2022-12-08T01:20:10.606Z,94998
2022-12-08T01:21:20.343Z,94995
2022-12-08T01:22:30.088Z,94994
2022-12-08T01:23:38.759Z,94993
2022-12-08T01:24:47.467Z,94994
2022-12-08T01:25:56.275Z,94993
2022-12-08T01:27:05.946Z,94994
2022-12-08T01:28:15.670Z,94988
2022-12-08T01:29:25.364Z,94989
2022-12-08T01:30:35.112Z,94986
2022-12-08T01:31:43.770Z,94985
2022-12-08T01:32:53.480Z,94983
2022-12-08T01:34:02.210Z,94988
2022-12-08T01:35:11.902Z,94983
2022-12-08T01:36:21.604Z,94984
2022-12-08T01:37:30.322Z,94986
2022-12-08T01:38:40.006Z,94988
2022-12-08T01:39:49.722Z,94986
2022-12-08T01:40:58.433Z,94985
2022-12-08T01:42:08.136Z,94982
2022-12-08T01:43:17.834Z,94982
2022-12-08T01:44:27.522Z,94979
2022-12-08T01:45:37.287Z,94979
2022-12-08T01:46:46.983Z,94977
2022-12-08T01:47:56.772Z,94971
2022-12-08T01:49:05.420Z,94967
2022-12-08T01:50:15.122Z,94972
2022-12-08T01:51:24.860Z,94970
2022-12-08T01:52:33.564Z,94971
2022-12-08T01:53:42.256Z,94968
2022-12-08T01:54:50.993Z,94973
2022-12-08T01:56:00.724Z,94973
2022-12-08T01:57:10.457Z,94971
2022-12-08T01:58:20.161Z,94971
2022-12-08T01:59:29.863Z,94973
2022-12-08T02:00:38.572Z,94968
2022-12-08T02:01:46.360Z,94967
2022-12-08T02:02:55.094Z,94964
2022-12-08T02:04:04.755Z,94962
2022-12-08T02:05:14.489Z,94965
2022-12-08T02:06:24.301Z,94964
2022-12-08T02:07:33.093Z,94965
2022-12-08T02:08:42.861Z,94961
2022-12-08T02:09:52.547Z,94961
2022-12-08T02:11:02.266Z,94959
2022-12-08T02:12:11.041Z,94952
2022-12-08T02:13:19.793Z,94958
2022-12-08T02:14:29.571Z,94951
2022-12-08T02:15:39.332Z,94944
2022-12-08T02:16:49.015Z,94947
2022-12-08T02:17:58.776Z,94945
2022-12-08T02:19:30.139Z,94949
2022-12-08T02:20:19.162Z,94946
2022-12-08T02:21:28.872Z,94942
2022-12-08T02:22:37.567Z,94943
2022-12-08T02:23:47.271Z,94941
2022-12-08T02:24:56.956Z,94938
2022-12-08T02:26:06.676Z,94937
2022-12-08T02:27:16.392Z,94934
2022-12-08T02:28:26.095Z,94930
2022-12-08T02:29:34.815Z,94932
2022-12-08T02:30:44.584Z,94930
2022-12-08T02:31:54.263Z,94931
2022-12-08T02:33:02.977Z,94928
2022-12-08T02:34:12.668Z,94931
2022-12-08T02:35:22.369Z,94928
2022-12-08T02:36:32.106Z,94927
2022-12-08T02:37:41.833Z,94927
2022-12-08T02:38:51.541Z,94928
2022-12-08T02:40:00.239Z,94927
2022-12-08T02:41:08.940Z,94930
2022-12-08T02:42:18.671Z,94928
2022-12-08T02:43:28.408Z,94926
2022-12-08T02:44:38.156Z,94925
2022-12-08T02:45:47.904Z,94925
2022-12-08T02:46:57.608Z,94925
2022-12-08T02:48:07.328Z,94923
2022-12-08T02:49:16.992Z,94919
2022-12-08T02:50:26.722Z,94918
2022-12-08T02:51:36.426Z,94921
2022-12-08T02:52:46.151Z,94917
2022-12-08T02:53:55.873Z,94916
2022-12-08T02:55:05.579Z,94917
2022-12-08T02:56:15.314Z,94915
2022-12-08T02:57:25.136Z,94914
2022-12-08T02:58:34.873Z,94915
2022-12-08T02:59:44.573Z,94911
2022-12-08T03:00:53.300Z,94914
2022-12-08T03:02:03.087Z,94913
2022-12-08T03:03:12.735Z,94909
2022-12-08T03:04:22.405Z,94907
2022-12-08T03:05:32.138Z,94909
2022-12-08T03:06:40.858Z,94908
2022-12-08T03:07:50.619Z,94904
2022-12-08T03:08:59.256Z,94902
2022-12-08T03:10:08.947Z,94904
2022-12-08T03:11:18.670Z,94908
2022-12-08T03:12:28.392Z,94901
2022-12-08T03:13:38.106Z,94904
2022-12-08T03:14:47.791Z,94904
2022-12-08T03:15:57.683Z,94900
2022-12-08T03:17:07.272Z,94901
2022-12-08T03:18:18.043Z,94900
2022-12-08T03:19:26.758Z,94899
2022-12-08T03:20:36.468Z,94900
2022-12-08T03:21:46.171Z,94893
2022-12-08T03:22:55.876Z,94894
2022-12-08T03:24:05.592Z,94894
2022-12-08T03:25:14.316Z,94898
2022-12-08T03:26:24.040Z,94900
2022-12-08T03:27:33.837Z,94903
2022-12-08T03:28:43.718Z,94898
2022-12-08T03:29:53.473Z,94898
2022-12-08T03:31:03.267Z,94898
2022-12-08T03:32:12.908Z,94895
2022-12-08T03:33:22.671Z,94897
2022-12-08T03:34:32.364Z,94896
2022-12-08T03:35:42.124Z,94897
2022-12-08T03:36:49.840Z,94895
2022-12-08T03:37:59.624Z,94893
2022-12-08T03:39:09.357Z,94893
2022-12-08T03:40:18.063Z,94888
2022-12-08T03:41:27.854Z,94891
2022-12-08T03:42:37.566Z,94887
2022-12-08T03:43:46.351Z,94887
2022-12-08T03:44:56.110Z,94888
2022-12-08T03:46:04.848Z,94885
2022-12-08T03:47:14.582Z,94890
2022-12-08T03:48:24.342Z,94889
2022-12-08T03:49:34.018Z,94885
2022-12-08T03:50:42.747Z,94883
2022-12-08T03:51:51.492Z,94884
2022-12-08T03:53:01.242Z,94883
2022-12-08T03:54:10.959Z,94880
2022-12-08T03:55:20.687Z,94881
2022-12-08T03:56:30.402Z,94880
2022-12-08T03:57:39.133Z,94880
2022-12-08T03:58:47.891Z,94879
2022-12-08T03:59:57.623Z,94882
2022-12-08T04:01:05.341Z,94874
2022-12-08T04:02:15.177Z,94876
2022-12-08T04:03:24.829Z,94879
2022-12-08T04:04:34.562Z,94877
2022-12-08T04:05:43.248Z,94878
2022-12-08T04:06:52.956Z,94879
2022-12-08T04:08:02.719Z,94876
2022-12-08T04:09:12.399Z,94876
2022-12-08T04:10:21.161Z,94876
2022-12-08T04:11:30.887Z,94876
2022-12-08T04:12:40.619Z,94878
2022-12-08T04:13:50.353Z,94880
2022-12-08T04:15:00.108Z,94876
2022-12-08T04:16:08.862Z,94875
2022-12-08T04:17:19.522Z,94876
2022-12-08T04:18:29.213Z,94876
2022-12-08T04:19:37.962Z,94877
2022-12-08T04:20:46.645Z,94877
2022-12-08T04:21:56.416Z,94870
2022-12-08T04:23:06.149Z,94877
2022-12-08T04:24:15.892Z,94877
2022-12-08T04:25:24.630Z,94877
2022-12-08T04:26:34.360Z,94879
2022-12-08T04:27:44.140Z,94879
2022-12-08T04:28:53.891Z,94876
2022-12-08T04:30:04.023Z,94871
2022-12-08T04:31:13.423Z,94876
2022-12-08T04:32:22.082Z,94873
2022-12-08T04:33:31.855Z,94871
2022-12-08T04:34:41.613Z,94869
2022-12-08T04:35:50.357Z,94869
2022-12-08T04:37:00.103Z,94868
2022-12-08T04:38:08.824Z,94866
2022-12-08T04:39:18.549Z,94865
2022-12-08T04:40:28.292Z,94863
2022-12-08T04:41:37.107Z,94866
2022-12-08T04:42:46.768Z,94863
2022-12-08T04:43:56.490Z,94862
2022-12-08T04:45:06.312Z,94863
2022-12-08T04:46:16.091Z,94861
2022-12-08T04:47:24.754Z,94862
2022-12-08T04:48:34.485Z,94860
2022-12-08T04:49:44.245Z,94860
2022-12-08T04:50:53.992Z,94860
2022-12-08T04:52:03.738Z,94854
2022-12-08T04:53:13.472Z,94860
2022-12-08T04:54:23.162Z,94857
2022-12-08T04:55:32.902Z,94856
2022-12-08T04:56:41.677Z,94857
2022-12-08T04:57:51.384Z,94858
2022-12-08T04:59:01.133Z,94857
2022-12-08T05:00:09.850Z,94861
2022-12-08T05:01:19.609Z,94863
2022-12-08T05:02:29.360Z,94861
2022-12-08T05:03:39.103Z,94861
2022-12-08T05:04:48.927Z,94859
2022-12-08T05:05:57.631Z,94862
2022-12-08T05:07:07.383Z,94861
2022-12-08T05:08:17.152Z,94862
2022-12-08T05:09:26.858Z,94863
2022-12-08T05:10:36.589Z,94863
2022-12-08T05:11:48.978Z,94859
2022-12-08T05:12:56.040Z,94859
2022-12-08T05:14:05.798Z,94859
2022-12-08T05:15:14.515Z,94862
2022-12-08T05:16:24.299Z,94855
2022-12-08T05:17:34.188Z,94861
2022-12-08T05:18:43.963Z,94862
2022-12-08T05:19:53.735Z,94858
2022-12-08T05:21:03.445Z,94857
2022-12-08T05:22:13.165Z,94860
2022-12-08T05:23:22.897Z,94856
2022-12-08T05:24:31.637Z,94853
2022-12-08T05:25:41.533Z,94855
2022-12-08T05:26:50.328Z,94852
2022-12-08T05:28:17.910Z,94854
2022-12-08T05:29:10.809Z,94848
2022-12-08T05:30:20.648Z,94846
2022-12-08T05:31:30.441Z,94852
2022-12-08T05:32:40.155Z,94848
2022-12-08T05:33:47.986Z,94852
2022-12-08T05:34:58.805Z,94847
2022-12-08T05:36:08.529Z,94847
2022-12-08T05:37:18.260Z,94843
2022-12-08T05:38:28.020Z,94845
2022-12-08T05:39:36.767Z,94845
2022-12-08T05:40:46.491Z,94850
2022-12-08T05:41:56.334Z,94845
2022-12-08T05:43:05.125Z,94841
2022-12-08T05:44:14.887Z,94836
2022-12-08T05:45:23.620Z,94830
2022-12-08T05:46:33.373Z,94837
2022-12-08T05:47:43.100Z,94836
2022-12-08T05:48:52.950Z,94833
2022-12-08T05:50:02.986Z,94836
2022-12-08T05:51:12.484Z,94835
2022-12-08T05:52:22.235Z,94833
2022-12-08T05:53:32.975Z,94831
2022-12-08T05:54:42.775Z,94829
2022-12-08T05:55:52.577Z,94830
2022-12-08T05:57:02.385Z,94830
2022-12-08T05:58:10.046Z,94833
2022-12-08T05:59:19.722Z,94831
2022-12-08T06:00:28.430Z,94834
2022-12-08T06:01:37.187Z,94838
2022-12-08T06:02:46.946Z,94835
2022-12-08T06:03:54.504Z,94834
2022-12-08T06:05:04.185Z,94839
2022-12-08T06:06:13.904Z,94828
2022-12-08T06:07:21.578Z,94829
2022-12-08T06:08:31.315Z,94833
2022-12-08T06:09:40.964Z,94831
2022-12-08T06:10:49.675Z,94831
2022-12-08T06:11:59.404Z,94824
2022-12-08T06:13:08.088Z,94832
2022-12-08T06:14:18.772Z,94831
2022-12-08T06:15:27.448Z,94831
2022-12-08T06:16:35.164Z,94829
2022-12-08T06:17:43.854Z,94831
2022-12-08T06:18:53.525Z,94834
2022-12-08T06:20:03.528Z,94835
2022-12-08T06:21:12.978Z,94832
2022-12-08T06:22:20.695Z,94833
2022-12-08T06:23:29.346Z,94834
2022-12-08T06:24:39.047Z,94829
2022-12-08T06:25:46.709Z,94827
2022-12-08T06:26:55.393Z,94828
2022-12-08T06:28:04.094Z,94832
2022-12-08T06:29:12.778Z,94834
2022-12-08T06:30:22.468Z,94833
2022-12-08T06:31:30.184Z,94833
2022-12-08T06:32:38.826Z,94834
2022-12-08T06:33:48.580Z,94832
2022-12-08T06:34:57.402Z,94832
2022-12-08T06:36:06.106Z,94831
2022-12-08T06:37:15.793Z,94832
2022-12-08T06:38:24.516Z,94830
2022-12-08T06:39:34.191Z,94830
2022-12-08T06:40:43.894Z,94829
2022-12-08T06:41:52.563Z,94825
2022-12-08T06:43:02.276Z,94824
2022-12-08T06:44:11.961Z,94827
2022-12-08T06:45:20.638Z,94826
2022-12-08T06:46:29.386Z,94829
2022-12-08T06:47:39.125Z,94830
2022-12-08T06:48:48.809Z,94831
2022-12-08T06:49:56.484Z,94830
2022-12-08T06:51:05.193Z,94832
2022-12-08T06:52:14.922Z,94826
2022-12-08T06:53:23.637Z,94822
2022-12-08T06:54:33.352Z,94823
2022-12-08T06:55:58.667Z,94823
2022-12-08T06:56:53.722Z,94829
2022-12-08T06:58:04.419Z,94823
2022-12-08T06:59:13.105Z,94828
2022-12-08T07:00:22.782Z,94828
2022-12-08T07:01:32.554Z,94831
2022-12-08T07:02:40.196Z,94830
2022-12-08T07:03:50.854Z,94833
2022-12-08T07:04:59.549Z,94830
2022-12-08T07:06:09.235Z,94829
2022-12-08T07:07:17.953Z,94837
2022-12-08T07:08:26.748Z,94832
2022-12-08T07:09:35.331Z,94836
2022-12-08T07:10:45.029Z,94831
2022-12-08T07:11:52.712Z,94831
2022-12-08T07:13:01.397Z,94829
2022-12-08T07:14:10.151Z,94834
2022-12-08T07:15:18.899Z,94833
2022-12-08T07:16:28.677Z,94832
2022-12-08T07:17:36.275Z,94833
2022-12-08T07:18:45.985Z,94839
2022-12-08T07:19:55.667Z,94840
2022-12-08T07:21:04.417Z,94843
2022-12-08T07:22:12.174Z,94839
2022-12-08T07:23:20.878Z,94839
2022-12-08T07:24:30.542Z,94843
2022-12-08T07:25:40.252Z,94842
2022-12-08T07:26:48.918Z,94841
2022-12-08T07:27:57.640Z,94844
2022-12-08T07:29:07.344Z,94848
2022-12-08T07:30:15.063Z,94846
2022-12-08T07:31:24.843Z,94848
2022-12-08T07:32:34.389Z,94852
2022-12-08T07:33:43.072Z,94849
2022-12-08T07:34:52.762Z,94844
2022-12-08T07:36:02.427Z,94847
2022-12-08T07:37:12.106Z,94849
2022-12-08T07:38:22.312Z,94847
2022-12-08T07:39:31.994Z,94848
2022-12-08T07:40:40.684Z,94849
2022-12-08T07:41:49.374Z,94846
2022-12-08T07:42:59.011Z,94843
2022-12-08T07:44:08.736Z,94846
2022-12-08T07:45:17.412Z,94840
2022-12-08T07:46:28.130Z,94840
2022-12-08T07:47:36.755Z,94842
2022-12-08T07:48:45.435Z,94845
2022-12-08T07:49:55.153Z,94846
2022-12-08T07:51:02.818Z,94846
2022-12-08T07:52:12.503Z,94848
2022-12-08T07:53:22.202Z,94850
2022-12-08T07:54:30.950Z,94847
2022-12-08T07:55:40.697Z,94844
2022-12-08T07:56:48.359Z,94846
2022-12-08T07:57:56.058Z,94841
2022-12-08T07:59:04.724Z,94844
2022-12-08T08:00:12.415Z,94842
2022-12-08T08:01:22.290Z,94845
2022-12-08T08:02:31.940Z,94846
2022-12-08T08:03:40.490Z,94849
2022-12-08T08:04:50.205Z,94848
2022-12-08T08:05:57.853Z,94844
2022-12-08T08:07:06.529Z,94852
2022-12-08T08:08:16.302Z,94846
2022-12-08T08:09:24.873Z,94849
2022-12-08T08:10:33.532Z,94849
2022-12-08T08:11:42.219Z,94843
2022-12-08T08:12:53.620Z,94842
2022-12-08T08:14:03.315Z,94848
2022-12-08T08:15:11.976Z,94848
2022-12-08T08:16:19.834Z,94844
2022-12-08T08:17:29.785Z,94845
2022-12-08T08:18:37.041Z,94843
2022-12-08T08:19:46.719Z,94847
2022-12-08T08:20:55.374Z,94848
2022-12-08T08:22:06.065Z,94847
2022-12-08T08:23:15.763Z,94847
2022-12-08T08:24:24.446Z,94841
2022-12-08T08:25:33.114Z,94846
2022-12-08T08:26:42.815Z,94844
2022-12-08T08:27:50.486Z,94845
2022-12-08T08:28:59.175Z,94840
2022-12-08T08:30:08.134Z,94839
2022-12-08T08:31:18.617Z,94839
2022-12-08T08:32:28.256Z,94838
2022-12-08T08:33:37.925Z,94837
2022-12-08T08:34:46.594Z,94837
2022-12-08T08:35:56.348Z,94839
2022-12-08T08:37:06.114Z,94840
2022-12-08T08:38:15.698Z,94836
2022-12-08T08:39:24.369Z,94838
2022-12-08T08:40:33.033Z,94838
2022-12-08T08:41:42.745Z,94835
2022-12-08T08:42:51.424Z,94838
2022-12-08T08:44:00.122Z,94839
2022-12-08T08:45:09.832Z,94839
2022-12-08T08:46:18.601Z,94840
2022-12-08T08:47:27.200Z,94843
2022-12-08T08:48:35.858Z,94840
2022-12-08T08:49:45.561Z,94842
2022-12-08T08:50:55.232Z,94848
2022-12-08T08:52:02.962Z,94841
2022-12-08T08:53:11.691Z,94841
2022-12-08T08:54:20.381Z,94845
2022-12-08T08:55:29.086Z,94843
2022-12-08T08:56:37.780Z,94844
2022-12-08T08:57:47.470Z,94842
2022-12-08T08:58:56.134Z,94847
2022-12-08T09:00:05.148Z,94844
2022-12-08T09:01:13.620Z,94841
2022-12-08T09:02:23.225Z,94844
2022-12-08T09:03:32.863Z,94842
2022-12-08T09:04:41.566Z,94847
2022-12-08T09:05:50.283Z,94849
2022-12-08T09:06:58.898Z,94843
2022-12-08T09:08:07.591Z,94845
2022-12-08T09:09:17.219Z,94844
2022-12-08T09:10:25.903Z,94841
2022-12-08T09:11:35.577Z,94842
2022-12-08T09:12:45.247Z,94839
2022-12-08T09:13:52.932Z,94840
2022-12-08T09:15:01.591Z,94842
2022-12-08T09:16:10.421Z,94842
2022-12-08T09:17:19.005Z,94841
2022-12-08T09:18:28.698Z,94839
2022-12-08T09:19:37.354Z,94844
2022-12-08T09:20:46.044Z,94842
2022-12-08T09:21:55.826Z,94839
2022-12-08T09:23:04.495Z,94840
2022-12-08T09:24:14.198Z,94833
2022-12-08T09:25:22.915Z,94831
2022-12-08T09:26:31.587Z,94830
2022-12-08T09:27:41.293Z,94830
2022-12-08T09:28:50.981Z,94830
2022-12-08T09:29:59.845Z,94831
2022-12-08T09:31:09.535Z,94830
2022-12-08T09:32:18.204Z,94827
2022-12-08T09:33:26.928Z,94831
2022-12-08T09:34:35.636Z,94827
2022-12-08T09:35:44.378Z,94821
2022-12-08T09:36:54.056Z,94825
2022-12-08T09:38:03.739Z,94823
2022-12-08T09:39:13.447Z,94826
2022-12-08T09:40:23.133Z,94822
2022-12-08T09:41:37.825Z,94819
2022-12-08T09:42:43.438Z,94818
2022-12-08T09:43:52.111Z,94814
2022-12-08T09:45:00.848Z,94818
2022-12-08T09:46:09.553Z,94816
2022-12-08T09:47:18.181Z,94811
2022-12-08T09:48:27.853Z,94810
2022-12-08T09:49:37.554Z,94812
2022-12-08T09:50:46.232Z,94814
2022-12-08T09:51:55.909Z,94811
2022-12-08T09:53:03.581Z,94804
2022-12-08T09:54:12.238Z,94803
2022-12-08T09:55:21.895Z,94801
2022-12-08T09:56:30.608Z,94795
2022-12-08T09:57:40.283Z,94797
2022-12-08T09:58:48.957Z,94795
2022-12-08T09:59:58.646Z,94798
2022-12-08T10:01:08.334Z,94792
2022-12-08T10:02:16.052Z,94789
2022-12-08T10:03:25.772Z,94788
2022-12-08T10:04:34.504Z,94786
2022-12-08T10:05:44.144Z,94786
2022-12-08T10:06:53.771Z,94783
2022-12-08T10:08:01.557Z,94781
2022-12-08T10:09:12.531Z,94781
2022-12-08T10:10:21.759Z,94782
2022-12-08T10:11:29.423Z,94779
2022-12-08T10:12:39.130Z,94777
2022-12-08T10:13:47.841Z,94774
2022-12-08T10:14:55.500Z,94773
2022-12-08T10:16:05.250Z,94769
2022-12-08T10:17:14.869Z,94774
2022-12-08T10:18:23.580Z,94765
2022-12-08T10:19:32.309Z,94774
2022-12-08T10:20:39.978Z,94764
2022-12-08T10:21:48.700Z,94765
2022-12-08T10:22:58.390Z,94762
2022-12-08T10:24:08.077Z,94762
2022-12-08T10:25:17.821Z,94757
2022-12-08T10:26:26.535Z,94758
2022-12-08T10:27:35.199Z,94753
2022-12-08T10:28:45.717Z,94760
2022-12-08T10:29:53.562Z,94760
2022-12-08T10:31:03.307Z,94761
2022-12-08T10:32:12.899Z,94759
2022-12-08T10:33:21.582Z,94753
2022-12-08T10:34:31.250Z,94753
2022-12-08T10:35:39.938Z,94753
2022-12-08T10:36:49.685Z,94752
2022-12-08T10:37:59.372Z,94750
2022-12-08T10:39:08.082Z,94749
2022-12-08T10:40:16.817Z,94744
2022-12-08T10:41:26.486Z,94743
2022-12-08T10:42:36.254Z,94743
2022-12-08T10:43:45.947Z,94740
2022-12-08T10:44:54.625Z,94735
2022-12-08T10:46:04.340Z,94732
2022-12-08T10:47:13.094Z,94732
2022-12-08T10:48:22.755Z,94737
2022-12-08T10:49:31.546Z,94737
2022-12-08T10:50:41.235Z,94734
2022-12-08T10:51:49.926Z,94736
2022-12-08T10:52:59.644Z,94736
2022-12-08T10:54:07.386Z,94733
2022-12-08T10:55:18.044Z,94735
2022-12-08T10:56:27.744Z,94735
2022-12-08T10:57:36.433Z,94726
2022-12-08T10:58:46.453Z,94729
2022-12-08T10:59:55.251Z,94724
2022-12-08T11:01:04.995Z,94725
2022-12-08T11:02:14.791Z,94723
2022-12-08T11:03:23.530Z,94720
2022-12-08T11:04:33.237Z,94722
2022-12-08T11:05:41.916Z,94720
2022-12-08T11:06:50.671Z,94716
2022-12-08T11:07:59.508Z,94719
2022-12-08T11:09:09.105Z,94719
2022-12-08T11:10:18.823Z,94719
2022-12-08T11:11:29.558Z,94718
2022-12-08T11:12:37.155Z,94711
2022-12-08T11:13:45.828Z,94714
2022-12-08T11:14:55.533Z,94717
2022-12-08T11:16:03.316Z,94712
2022-12-08T11:17:12.996Z,94710
2022-12-08T11:18:21.682Z,94708
2022-12-08T11:19:30.404Z,94708
2022-12-08T11:20:39.160Z,94704
2022-12-08T11:21:46.836Z,94708
2022-12-08T11:22:55.531Z,94702
2022-12-08T11:24:05.238Z,94705
2022-12-08T11:25:13.930Z,94701
2022-12-08T11:26:22.610Z,94698
2022-12-08T11:27:32.292Z,94701
2022-12-08T11:28:41.006Z,94696
2022-12-08T11:29:50.714Z,94696
2022-12-08T11:30:59.400Z,94695
2022-12-08T11:32:08.137Z,94696
2022-12-08T11:33:17.797Z,94693
2022-12-08T11:34:27.524Z,94696
2022-12-08T11:35:36.207Z,94696
2022-12-08T11:36:44.916Z,94695
2022-12-08T11:38:03.008Z,94695
2022-12-08T11:39:04.297Z,94689
2022-12-08T11:40:13.006Z,94684
2022-12-08T11:41:22.711Z,94684
2022-12-08T11:42:31.425Z,94683
2022-12-08T11:43:40.075Z,94678
2022-12-08T11:44:49.784Z,94680
2022-12-08T11:45:57.501Z,94681
2022-12-08T11:47:07.238Z,94677
2022-12-08T11:48:16.920Z,94679
2022-12-08T11:49:25.601Z,94671
2022-12-08T11:50:35.278Z,94680
2022-12-08T11:51:42.993Z,94682
2022-12-08T11:52:52.672Z,94677
2022-12-08T11:54:02.329Z,94680
2022-12-08T11:55:10.044Z,94677
2022-12-08T11:56:19.778Z,94673
2022-12-08T11:57:28.458Z,94670
2022-12-08T11:58:37.160Z,94666
2022-12-08T11:59:46.808Z,94673
2022-12-08T12:00:55.488Z,94672
2022-12-08T12:02:04.216Z,94672
2022-12-08T12:03:13.983Z,94670
2022-12-08T12:04:22.609Z,94670
2022-12-08T12:05:47.829Z,94672
2022-12-08T12:06:58.301Z,94669
2022-12-08T12:07:53.675Z,94666
2022-12-08T12:09:03.336Z,94665
2022-12-08T12:10:11.006Z,94667
2022-12-08T12:11:20.753Z,94665
2022-12-08T12:12:33.704Z,94667
2022-12-08T12:13:41.135Z,94660
2022-12-08T12:14:50.797Z,94662
2022-12-08T12:16:00.488Z,94660
2022-12-08T12:17:10.295Z,94657
2022-12-08T12:18:19.934Z,94656
2022-12-08T12:19:27.608Z,94654
2022-12-08T12:20:37.318Z,94652
2022-12-08T12:21:47.078Z,94655
2022-12-08T12:22:54.782Z,94660
2022-12-08T12:24:03.449Z,94654
2022-12-08T12:25:12.136Z,94657
2022-12-08T12:26:21.816Z,94656
2022-12-08T12:27:31.515Z,94656
2022-12-08T12:28:40.191Z,94657
2022-12-08T12:29:55.384Z,94659
2022-12-08T12:30:59.702Z,94657
2022-12-08T12:32:08.289Z,94658
2022-12-08T12:33:18.007Z,94655
2022-12-08T12:34:27.719Z,94652
2022-12-08T12:35:37.417Z,94649
2022-12-08T12:36:47.073Z,94651
2022-12-08T12:37:54.766Z,94653
2022-12-08T12:39:03.489Z,94654
2022-12-08T12:40:13.246Z,94646
2022-12-08T12:41:25.202Z,94647
2022-12-08T12:42:29.517Z,94645
2022-12-08T12:43:38.208Z,94641
2022-12-08T12:44:47.884Z,94640
2022-12-08T12:45:57.611Z,94640
2022-12-08T12:47:07.222Z,94643
2022-12-08T12:48:16.927Z,94638
2022-12-08T12:49:26.755Z,94643
2022-12-08T12:50:35.426Z,94639
2022-12-08T12:51:45.127Z,94640
2022-12-08T12:52:53.821Z,94640
2022-12-08T12:54:03.511Z,94641
2022-12-08T12:55:13.213Z,94641
2022-12-08T12:56:21.891Z,94638
2022-12-08T12:57:30.557Z,94640
2022-12-08T12:58:40.321Z,94639
2022-12-08T12:59:53.384Z,94640
2022-12-08T13:00:57.781Z,94634
2022-12-08T13:02:07.389Z,94633
2022-12-08T13:03:16.008Z,94636
2022-12-08T13:04:25.713Z,94632
2022-12-08T13:05:35.380Z,94631
2022-12-08T13:06:45.121Z,94633
2022-12-08T13:07:54.869Z,94629
2022-12-08T13:09:02.536Z,94632
2022-12-08T13:10:12.308Z,94632
2022-12-08T13:11:22.000Z,94633
2022-12-08T13:12:31.679Z,94633
2022-12-08T13:13:41.393Z,94629
2022-12-08T13:14:49.085Z,94625
2022-12-08T13:15:58.766Z,94625
2022-12-08T13:17:09.480Z,94626
2022-12-08T13:18:18.137Z,94624
2022-12-08T13:19:26.828Z,94621
2022-12-08T13:20:35.492Z,94622
2022-12-08T13:21:45.182Z,94618
2022-12-08T13:22:54.873Z,94619
2022-12-08T13:24:03.582Z,94613
2022-12-08T13:25:13.293Z,94615
2022-12-08T13:26:23.021Z,94618
2022-12-08T13:27:32.714Z,94610
2022-12-08T13:28:41.376Z,94615
2022-12-08T13:29:51.077Z,94613
2022-12-08T13:31:00.888Z,94614
2022-12-08T13:32:10.430Z,94616
2022-12-08T13:33:19.065Z,94611
2022-12-08T13:34:26.811Z,94609
2022-12-08T13:35:36.545Z,94610
2022-12-08T13:36:45.223Z,94612
2022-12-08T13:37:55.501Z,94611
2022-12-08T13:39:04.583Z,94614
2022-12-08T13:40:13.268Z,94615
2022-12-08T13:41:21.954Z,94606
2022-12-08T13:42:31.615Z,94610
2022-12-08T13:43:51.263Z,94607
2022-12-08T13:48:42.579Z,94610
2022-12-08T13:54:56.335Z,94622
2022-12-08T13:57:49.238Z,94617
2022-12-08T13:58:58.932Z,94615
2022-12-08T14:00:08.691Z,94619
2022-12-08T14:01:17.277Z,94617
2022-12-08T14:02:25.976Z,94615
2022-12-08T14:03:35.657Z,94615
2022-12-08T14:05:17.278Z,94619
2022-12-08T14:06:13.323Z,94619
2022-12-08T14:07:06.058Z,94617
2022-12-08T14:08:30.029Z,94616
2022-12-08T14:09:26.440Z,94617
2022-12-08T14:10:35.130Z,94620
2022-12-08T14:11:43.804Z,94620
2022-12-08T14:12:53.543Z,94620
2022-12-08T14:14:03.259Z,94624
2022-12-08T14:15:12.285Z,94628
2022-12-08T14:16:21.039Z,94622
2022-12-08T14:17:30.780Z,94625
2022-12-08T14:18:38.504Z,94626
2022-12-08T14:19:48.188Z,94626
2022-12-08T14:21:19.775Z,94627
2022-12-08T14:22:07.865Z,94621
2022-12-08T14:23:17.533Z,94625
2022-12-08T14:24:26.209Z,94622
2022-12-08T14:25:35.961Z,94627
2022-12-08T14:26:45.685Z,94627
2022-12-08T14:27:54.392Z,94629
2022-12-08T14:29:04.170Z,94618
2022-12-08T14:30:13.872Z,94623
2022-12-08T14:31:22.703Z,94620
2022-12-08T14:32:32.343Z,94622
2022-12-08T14:33:41.133Z,94623
2022-12-08T14:34:50.923Z,94619
2022-12-08T14:36:00.555Z,94617
2022-12-08T14:37:09.242Z,94618
2022-12-08T14:38:18.111Z,94616
2022-12-08T14:39:26.666Z,94616
2022-12-08T14:40:34.400Z,94613
2022-12-08T14:41:43.161Z,94610
2022-12-08T14:42:52.817Z,94611
2022-12-08T14:44:02.495Z,94608
2022-12-08T14:45:12.228Z,94610
2022-12-08T14:46:19.992Z,94606
2022-12-08T14:47:28.587Z,94610
2022-12-08T14:48:38.295Z,94605
2022-12-08T14:49:47.978Z,94607
2022-12-08T14:50:57.756Z,94609
2022-12-08T14:52:07.435Z,94605
2022-12-08T14:53:17.111Z,94607
2022-12-08T14:54:26.849Z,94611
2022-12-08T14:55:34.480Z,94603
2022-12-08T14:56:44.258Z,94604
2022-12-08T14:57:52.991Z,94612
2022-12-08T14:59:02.720Z,94608
2022-12-08T15:00:11.579Z,94609
2022-12-08T15:01:20.437Z,94608
2022-12-08T15:02:29.139Z,94609